Svitzer Leixoes — CSXW6 — position and weather

sailwx.info

Track history (hours):
 
Tides and Currents Weather Stations Pressure Air Temp Water Temp Dewpoint Dewpoint Depression Visibility Wind Speed Wind Dir Waves Ship Positions

Svitzer Leixoes

Last reported at 2014-Dec-22 00:33 UTC. Time now 2014-Dec-22 01:22 UTC.
Position N 38°42' W 009°10'.

Length 28 m; draft 3.9 m.

Type: Towing. MMSI: 263622000.

Date/timePositionNaut miles runAvg speedWind from/ knotsBaromVisibWave heightAir tempDewpointWater temp
2014-Dec-22 00:33N 38°42' W 009°10'0 0.0
2014-Dec-21 23:33N 38°42' W 009°10'0 0.0
2014-Dec-21 22:33N 38°42' W 009°10'0 0.0
2014-Dec-21 21:33N 38°42' W 009°10'0 0.0
2014-Dec-21 20:33N 38°42' W 009°10'0 0.0
2014-Dec-21 19:34N 38°42' W 009°10'0 0.0
2014-Dec-21 18:33N 38°42' W 009°10'0 0.0
2014-Dec-21 17:33N 38°42' W 009°10'1 0.9
2014-Dec-21 16:33N 38°42' W 009°08'1 1.0
2014-Dec-21 15:33N 38°43' W 009°07'6 5.6
2014-Dec-21 14:33N 38°41' W 009°14'1 1.4
2014-Dec-21 13:33N 38°41' W 009°16'5 5.0
2014-Dec-21 12:33N 38°42' W 009°10'0 0.0
2014-Dec-21 11:33N 38°42' W 009°10'0 0.0
2014-Dec-21 10:33N 38°42' W 009°10'0 0.0
2014-Dec-21 09:33N 38°42' W 009°10'0 0.0
2014-Dec-21 08:33N 38°42' W 009°10'0 0.0
2014-Dec-21 07:33N 38°42' W 009°10'0 0.0
2014-Dec-21 06:33N 38°42' W 009°10'0 0.0
2014-Dec-21 05:33N 38°42' W 009°10'0 0.0
2014-Dec-21 04:33N 38°42' W 009°10'0 0.0
2014-Dec-21 03:33N 38°42' W 009°10'0 0.0
2014-Dec-21 02:33N 38°42' W 009°10'2 1.6
2014-Dec-21 01:34N 38°41' W 009°11'1 0.7
2014-Dec-21 00:33N 38°41' W 009°12'2 2.0
2014-Dec-20 23:33N 38°42' W 009°10'0 0.0
2014-Dec-20 22:33N 38°42' W 009°10'0 0.0
2014-Dec-20 21:33N 38°42' W 009°10'0 0.0
2014-Dec-20 20:33N 38°42' W 009°10'0 0.0
2014-Dec-20 19:33N 38°42' W 009°10'0 0.0
2014-Dec-20 18:33N 38°42' W 009°10'0 0.0
2014-Dec-20 17:33N 38°42' W 009°10'0 0.0
2014-Dec-20 16:33N 38°42' W 009°10'0 0.0
2014-Dec-20 15:33N 38°42' W 009°10'0 0.0
2014-Dec-20 14:33N 38°42' W 009°10'0 0.0
2014-Dec-20 13:33N 38°42' W 009°10'0 0.0
2014-Dec-20 12:33N 38°42' W 009°10'0 0.0
2014-Dec-20 11:33N 38°42' W 009°10'0 0.0
2014-Dec-20 10:33N 38°42' W 009°10'0 0.0
2014-Dec-20 09:33N 38°42' W 009°10'0 0.0
2014-Dec-20 08:33N 38°42' W 009°10'0 0.0
2014-Dec-20 07:33N 38°42' W 009°10'0 0.0
2014-Dec-20 06:33N 38°42' W 009°10'0 0.0
2014-Dec-20 05:33N 38°42' W 009°10'0 0.0
2014-Dec-20 04:33N 38°42' W 009°10'0 0.0
2014-Dec-20 03:33N 38°42' W 009°10'0 0.0
2014-Dec-20 02:33N 38°42' W 009°10'2 1.8
2014-Dec-20 01:33N 38°42' W 009°07'3 3.1
2014-Dec-20 00:33N 38°41' W 009°04'5 4.8
2014-Dec-19 23:33N 38°42' W 009°10'0 0.0
2014-Dec-19 22:33N 38°42' W 009°10'0 0.0
2014-Dec-19 21:33N 38°42' W 009°10'0 0.0
2014-Dec-19 20:34N 38°42' W 009°10'0 0.0
2014-Dec-19 19:33N 38°42' W 009°10'0 0.0
2014-Dec-19 18:33N 38°42' W 009°10'0 0.0
2014-Dec-19 17:34N 38°42' W 009°10'0 0.5
2014-Dec-19 16:33N 38°42' W 009°10'0 0.4
2014-Dec-19 15:33N 38°42' W 009°10'0 0.1
2014-Dec-19 14:33N 38°42' W 009°10'2 1.9
2014-Dec-19 13:33N 38°40' W 009°09'4 4.1
2014-Dec-19 12:33N 38°41' W 009°04'3 2.7
2014-Dec-19 11:33N 38°41' W 009°07'2 2.3
2014-Dec-19 10:33N 38°42' W 009°10'0 0.0
2014-Dec-19 09:33N 38°42' W 009°10'2 1.9
2014-Dec-19 08:33N 38°41' W 009°11'2 1.9
2014-Dec-19 07:33N 38°42' W 009°10'0 0.3
2014-Dec-19 06:34N 38°42' W 009°10'0 0.4
2014-Dec-19 05:33N 38°42' W 009°10'0 0.0
2014-Dec-19 04:33N 38°42' W 009°10'0 0.0
2014-Dec-19 03:33N 38°42' W 009°10'0 0.0
2014-Dec-19 02:33N 38°42' W 009°10'0 0.0
2014-Dec-19 01:33N 38°42' W 009°10'0 0.0
2014-Dec-19 00:33N 38°42' W 009°10'4 3.8
2014-Dec-18 23:33N 38°41' W 009°14'1 0.5
2014-Dec-18 22:33N 38°41' W 009°13'3 3.3
2014-Dec-18 21:33N 38°42' W 009°10'0 0.0
2014-Dec-18 20:33N 38°42' W 009°10'0 0.0
2014-Dec-18 19:33N 38°42' W 009°10'0 0.0
2014-Dec-18 18:33N 38°42' W 009°10'4 3.8
2014-Dec-18 17:33N 38°41' W 009°14'4 3.8
2014-Dec-18 16:33N 38°42' W 009°10'0 0.0
2014-Dec-18 15:33N 38°42' W 009°10'0 0.0
2014-Dec-18 14:33N 38°42' W 009°10'0 0.0
2014-Dec-18 13:33N 38°42' W 009°10'0 0.0
2014-Dec-18 12:33N 38°42' W 009°10'0 0.0
2014-Dec-18 11:33N 38°42' W 009°10'0 0.0
2014-Dec-18 10:33N 38°42' W 009°10'1 0.7
2014-Dec-18 09:33N 38°42' W 009°09'2 2.4
2014-Dec-18 08:33N 38°43' W 009°06'3 3.1
2014-Dec-18 07:33N 38°42' W 009°10'0 0.0
2014-Dec-18 06:33N 38°42' W 009°10'0 0.0
2014-Dec-18 05:34N 38°42' W 009°10'0 0.0
2014-Dec-18 04:33N 38°42' W 009°10'0 0.0
2014-Dec-18 03:33N 38°42' W 009°10'0 0.0
2014-Dec-18 02:33N 38°42' W 009°10'0 0.0
2014-Dec-18 01:33N 38°42' W 009°10'0 0.0
2014-Dec-18 00:34N 38°42' W 009°10'0 0.0
2014-Dec-17 23:33N 38°42' W 009°10'0 0.0
2014-Dec-17 22:33N 38°42' W 009°10'0 0.0
2014-Dec-17 21:33N 38°42' W 009°10'0 0.0
2014-Dec-17 20:33N 38°42' W 009°10'2 1.9
2014-Dec-17 19:33N 38°41' W 009°12'0 0.2
2014-Dec-17 18:34N 38°41' W 009°12'2 2.1
2014-Dec-17 17:33N 38°42' W 009°10'0 0.4
2014-Dec-17 16:33N 38°42' W 009°10'0 0.4
2014-Dec-17 15:33N 38°42' W 009°10'0 0.0
2014-Dec-17 14:33N 38°42' W 009°10'0 0.0
2014-Dec-17 13:33N 38°42' W 009°10'0 0.3
2014-Dec-17 12:33N 38°42' W 009°09'0 0.1
2014-Dec-17 11:33N 38°42' W 009°09'0 0.2
2014-Dec-17 10:33N 38°42' W 009°10'0 0.0
2014-Dec-17 09:33N 38°42' W 009°10'4 3.5
2014-Dec-17 08:33N 38°41' W 009°14'4 3.5
2014-Dec-17 07:33N 38°42' W 009°10'0 0.0
2014-Dec-17 06:33N 38°42' W 009°10'0 0.0
2014-Dec-17 05:33N 38°42' W 009°10'0 0.0
2014-Dec-17 04:33N 38°42' W 009°10'0 0.0
2014-Dec-17 03:34N 38°42' W 009°10'0 0.0
2014-Dec-17 02:33N 38°42' W 009°10'0 0.0
2014-Dec-17 01:33N 38°42' W 009°10'0 0.0
2014-Dec-17 00:33N 38°42' W 009°10'0 0.0
2014-Dec-16 23:33N 38°42' W 009°10'2 1.8
2014-Dec-16 22:33N 38°41' W 009°11'1 1.4
2014-Dec-16 21:33N 38°42' W 009°10'1 0.5
2014-Dec-16 20:34N 38°42' W 009°10'0 0.0
2014-Dec-16 19:33N 38°42' W 009°10'0 0.0
2014-Dec-16 18:33N 38°42' W 009°10'0 0.0
2014-Dec-16 17:33N 38°42' W 009°10'4 3.8
2014-Dec-16 16:33N 38°41' W 009°14'1 1.3
2014-Dec-16 15:33N 38°41' W 009°12'3 2.5
2014-Dec-16 14:33N 38°42' W 009°09'0 0.1
2014-Dec-16 13:33N 38°42' W 009°10'0 0.0
2014-Dec-16 12:33N 38°42' W 009°10'0 0.0
2014-Dec-16 11:33N 38°42' W 009°10'0 0.4
2014-Dec-16 10:33N 38°42' W 009°09'2 1.9
2014-Dec-16 09:33N 38°40' W 009°09'2 2.1
2014-Dec-16 08:33N 38°42' W 009°10'0 0.3
2014-Dec-16 07:33N 38°42' W 009°10'0 0.4
2014-Dec-16 06:33N 38°42' W 009°10'0 0.3
2014-Dec-16 05:33N 38°42' W 009°10'0 0.0
2014-Dec-16 04:33N 38°42' W 009°10'0 0.0
2014-Dec-16 03:32N 38°42' W 009°10'0 0.0
2014-Dec-16 02:33N 38°42' W 009°10'0 0.0
2014-Dec-16 01:33N 38°42' W 009°10'0 0.0
2014-Dec-16 00:31N 38°42' W 009°10'0 0.0
2014-Dec-15 23:33N 38°42' W 009°10'3 2.9
2014-Dec-15 22:34N 38°44' W 009°06'3 2.9
2014-Dec-15 21:33N 38°42' W 009°10'0 0.0
2014-Dec-15 20:33N 38°42' W 009°10'0 0.0
2014-Dec-15 19:33N 38°42' W 009°10'0 0.0
2014-Dec-15 18:33N 38°42' W 009°10'0 0.0
2014-Dec-15 17:33N 38°42' W 009°10'0 0.0
2014-Dec-15 16:33N 38°42' W 009°10'0 0.0
2014-Dec-15 15:33N 38°42' W 009°10'0 0.0
2014-Dec-15 14:33N 38°42' W 009°10'0 0.0
2014-Dec-15 13:33N 38°42' W 009°10'0 0.0
2014-Dec-15 12:33N 38°42' W 009°10'0 0.0
2014-Dec-15 11:33N 38°42' W 009°10'0 0.0
2014-Dec-15 10:33N 38°42' W 009°10'0 0.0
2014-Dec-15 09:33N 38°42' W 009°10'0 0.0
2014-Dec-15 08:34N 38°42' W 009°10'2 1.9
2014-Dec-15 07:33N 38°40' W 009°09'2 1.8
2014-Dec-15 06:33N 38°42' W 009°10'1 0.7
2014-Dec-15 05:33N 38°42' W 009°11'1 0.9
2014-Dec-15 04:33N 38°42' W 009°10'1 0.7
2014-Dec-15 03:33N 38°42' W 009°09'2 1.6
2014-Dec-15 02:33N 38°43' W 009°07'2 2.3
2014-Dec-15 01:33N 38°42' W 009°10'0 0.0
2014-Dec-15 00:33N 38°42' W 009°10'0 0.0
2014-Dec-14 23:33N 38°42' W 009°10'0 0.0
2014-Dec-14 22:33N 38°42' W 009°10'0 0.0
2014-Dec-14 21:33N 38°42' W 009°10'0 0.0
2014-Dec-14 20:33N 38°42' W 009°10'0 0.0
2014-Dec-14 19:33N 38°42' W 009°10'0 0.0
2014-Dec-14 18:33N 38°42' W 009°10'0 0.0
2014-Dec-14 17:33N 38°42' W 009°10'0 0.0
2014-Dec-14 16:33N 38°42' W 009°10'0 0.0
2014-Dec-14 15:33N 38°42' W 009°10'2 1.7
2014-Dec-14 14:33N 38°41' W 009°11'1 1.3
2014-Dec-14 13:33N 38°41' W 009°13'3 2.7
2014-Dec-14 12:33N 38°42' W 009°09'0 0.3
2014-Dec-14 11:33N 38°42' W 009°10'0 0.0
2014-Dec-14 10:33N 38°42' W 009°10'2 1.9
2014-Dec-14 09:33N 38°41' W 009°08'2 1.9
2014-Dec-14 08:33N 38°42' W 009°10'0 0.0
2014-Dec-14 07:33N 38°42' W 009°10'0 0.0
2014-Dec-14 06:33N 38°42' W 009°10'0 0.0
2014-Dec-14 05:33N 38°42' W 009°10'0 0.0
2014-Dec-14 04:33N 38°42' W 009°10'0 0.0
2014-Dec-14 03:33N 38°42' W 009°10'0 0.0
2014-Dec-14 02:33N 38°42' W 009°10'0 0.0
2014-Dec-14 01:33N 38°42' W 009°10'0 0.0
2014-Dec-14 00:33N 38°42' W 009°10'0 0.0
2014-Dec-13 23:33N 38°42' W 009°10'0 0.0
2014-Dec-13 22:33N 38°42' W 009°10'0 0.0
2014-Dec-13 21:33N 38°42' W 009°10'0 0.0
2014-Dec-13 20:34N 38°42' W 009°10'0 0.0
2014-Dec-13 19:33N 38°42' W 009°10'2 1.9
2014-Dec-13 18:33N 38°40' W 009°09'2 1.9
2014-Dec-13 17:33N 38°42' W 009°10'0 0.0
2014-Dec-13 16:33N 38°42' W 009°10'0 0.0
2014-Dec-13 15:33N 38°42' W 009°10'0 0.0
2014-Dec-13 14:33N 38°42' W 009°10'0 0.0
2014-Dec-13 13:34N 38°42' W 009°10'0 0.0
2014-Dec-13 12:34N 38°42' W 009°10'0 0.0
2014-Dec-13 11:34N 38°42' W 009°10'0 0.0
2014-Dec-13 10:34N 38°42' W 009°10'0 0.0
2014-Dec-13 09:33N 38°42' W 009°10'0 0.0
2014-Dec-13 08:34N 38°42' W 009°10'0 0.0
2014-Dec-13 07:33N 38°42' W 009°10'0 0.2
2014-Dec-13 06:33N 38°42' W 009°10'0 0.2
2014-Dec-13 05:34N 38°42' W 009°10'0 0.0
2014-Dec-13 04:33N 38°42' W 009°10'0 0.0
2014-Dec-13 03:34N 38°42' W 009°10'0 0.0
2014-Dec-13 02:34N 38°42' W 009°10'0 0.0
2014-Dec-13 01:34N 38°42' W 009°10'0 0.0
2014-Dec-13 00:34N 38°42' W 009°10'0 0.0
2014-Dec-12 23:34N 38°42' W 009°10'0 0.0
2014-Dec-12 22:33N 38°42' W 009°10'0 0.0
2014-Dec-12 21:33N 38°42' W 009°10'0 0.0
2014-Dec-12 20:33N 38°42' W 009°10'3 2.5
2014-Dec-12 19:33N 38°43' W 009°07'2 2.1
2014-Dec-12 18:33N 38°42' W 009°09'1 0.9
2014-Dec-12 17:33N 38°42' W 009°10'0 0.0
2014-Dec-12 16:33N 38°42' W 009°10'0 0.0
2014-Dec-12 15:33N 38°42' W 009°10'0 0.0
2014-Dec-12 14:34N 38°42' W 009°10'0 0.0
2014-Dec-12 13:34N 38°42' W 009°10'0 0.0
2014-Dec-12 12:34N 38°42' W 009°10'0 0.0
2014-Dec-12 11:33N 38°42' W 009°10'0 0.0
2014-Dec-12 10:34N 38°42' W 009°10'0 0.0
2014-Dec-12 09:33N 38°42' W 009°10'0 0.0
2014-Dec-12 08:34N 38°42' W 009°10'0 0.0
2014-Dec-12 07:33N 38°42' W 009°10'3 2.9
2014-Dec-12 06:34N 38°44' W 009°06'3 2.7
2014-Dec-12 05:34N 38°42' W 009°09'0 0.3
2014-Dec-12 04:33N 38°42' W 009°10'1 0.8
2014-Dec-12 03:34N 38°42' W 009°09'4 4.0
2014-Dec-12 02:33N 38°41' W 009°04'5 4.8
2014-Dec-12 01:34N 38°42' W 009°10'0 0.0
2014-Dec-12 00:33N 38°42' W 009°10'  
Track history (hours):
 
Tides and Currents Weather Stations Pressure Air Temp Water Temp Dewpoint Dewpoint Depression Visibility Wind Speed Wind Dir Waves Ship Positions

Svitzer Leixoes

Last reported at 2014-Dec-22 00:33 UTC. Time now 2014-Dec-22 01:22 UTC.
Position N 38°42' W 009°10'.

Length 28 m; draft 3.9 m.

Type: Towing. MMSI: 263622000.

Date/timePositionNaut miles runAvg speedWind from/ knotsBaromVisibWave heightAir tempDewpointWater temp
2014-Dec-22 00:33N 38°42' W 009°10'0 0.0
2014-Dec-21 23:33N 38°42' W 009°10'0 0.0
2014-Dec-21 22:33N 38°42' W 009°10'0 0.0
2014-Dec-21 21:33N 38°42' W 009°10'0 0.0
2014-Dec-21 20:33N 38°42' W 009°10'0 0.0
2014-Dec-21 19:34N 38°42' W 009°10'0 0.0
2014-Dec-21 18:33N 38°42' W 009°10'0 0.0
2014-Dec-21 17:33N 38°42' W 009°10'1 0.9
2014-Dec-21 16:33N 38°42' W 009°08'1 1.0
2014-Dec-21 15:33N 38°43' W 009°07'6 5.6
2014-Dec-21 14:33N 38°41' W 009°14'1 1.4
2014-Dec-21 13:33N 38°41' W 009°16'5 5.0
2014-Dec-21 12:33N 38°42' W 009°10'0 0.0
2014-Dec-21 11:33N 38°42' W 009°10'0 0.0
2014-Dec-21 10:33N 38°42' W 009°10'0 0.0
2014-Dec-21 09:33N 38°42' W 009°10'0 0.0
2014-Dec-21 08:33N 38°42' W 009°10'0 0.0
2014-Dec-21 07:33N 38°42' W 009°10'0 0.0
2014-Dec-21 06:33N 38°42' W 009°10'0 0.0
2014-Dec-21 05:33N 38°42' W 009°10'0 0.0
2014-Dec-21 04:33N 38°42' W 009°10'0 0.0
2014-Dec-21 03:33N 38°42' W 009°10'0 0.0
2014-Dec-21 02:33N 38°42' W 009°10'2 1.6
2014-Dec-21 01:34N 38°41' W 009°11'1 0.7
2014-Dec-21 00:33N 38°41' W 009°12'2 2.0
2014-Dec-20 23:33N 38°42' W 009°10'0 0.0
2014-Dec-20 22:33N 38°42' W 009°10'0 0.0
2014-Dec-20 21:33N 38°42' W 009°10'0 0.0
2014-Dec-20 20:33N 38°42' W 009°10'0 0.0
2014-Dec-20 19:33N 38°42' W 009°10'0 0.0
2014-Dec-20 18:33N 38°42' W 009°10'0 0.0
2014-Dec-20 17:33N 38°42' W 009°10'0 0.0
2014-Dec-20 16:33N 38°42' W 009°10'0 0.0
2014-Dec-20 15:33N 38°42' W 009°10'0 0.0
2014-Dec-20 14:33N 38°42' W 009°10'0 0.0
2014-Dec-20 13:33N 38°42' W 009°10'0 0.0
2014-Dec-20 12:33N 38°42' W 009°10'0 0.0
2014-Dec-20 11:33N 38°42' W 009°10'0 0.0
2014-Dec-20 10:33N 38°42' W 009°10'0 0.0
2014-Dec-20 09:33N 38°42' W 009°10'0 0.0
2014-Dec-20 08:33N 38°42' W 009°10'0 0.0
2014-Dec-20 07:33N 38°42' W 009°10'0 0.0
2014-Dec-20 06:33N 38°42' W 009°10'0 0.0
2014-Dec-20 05:33N 38°42' W 009°10'0 0.0
2014-Dec-20 04:33N 38°42' W 009°10'0 0.0
2014-Dec-20 03:33N 38°42' W 009°10'0 0.0
2014-Dec-20 02:33N 38°42' W 009°10'2 1.8
2014-Dec-20 01:33N 38°42' W 009°07'3 3.1
2014-Dec-20 00:33N 38°41' W 009°04'5 4.8
2014-Dec-19 23:33N 38°42' W 009°10'0 0.0
2014-Dec-19 22:33N 38°42' W 009°10'0 0.0
2014-Dec-19 21:33N 38°42' W 009°10'0 0.0
2014-Dec-19 20:34N 38°42' W 009°10'0 0.0
2014-Dec-19 19:33N 38°42' W 009°10'0 0.0
2014-Dec-19 18:33N 38°42' W 009°10'0 0.0
2014-Dec-19 17:34N 38°42' W 009°10'0 0.5
2014-Dec-19 16:33N 38°42' W 009°10'0 0.4
2014-Dec-19 15:33N 38°42' W 009°10'0 0.1
2014-Dec-19 14:33N 38°42' W 009°10'2 1.9
2014-Dec-19 13:33N 38°40' W 009°09'4 4.1
2014-Dec-19 12:33N 38°41' W 009°04'3 2.7
2014-Dec-19 11:33N 38°41' W 009°07'2 2.3
2014-Dec-19 10:33N 38°42' W 009°10'0 0.0
2014-Dec-19 09:33N 38°42' W 009°10'2 1.9
2014-Dec-19 08:33N 38°41' W 009°11'2 1.9
2014-Dec-19 07:33N 38°42' W 009°10'0 0.3
2014-Dec-19 06:34N 38°42' W 009°10'0 0.4
2014-Dec-19 05:33N 38°42' W 009°10'0 0.0
2014-Dec-19 04:33N 38°42' W 009°10'0 0.0
2014-Dec-19 03:33N 38°42' W 009°10'0 0.0
2014-Dec-19 02:33N 38°42' W 009°10'0 0.0
2014-Dec-19 01:33N 38°42' W 009°10'0 0.0
2014-Dec-19 00:33N 38°42' W 009°10'4 3.8
2014-Dec-18 23:33N 38°41' W 009°14'1 0.5
2014-Dec-18 22:33N 38°41' W 009°13'3 3.3
2014-Dec-18 21:33N 38°42' W 009°10'0 0.0
2014-Dec-18 20:33N 38°42' W 009°10'0 0.0
2014-Dec-18 19:33N 38°42' W 009°10'0 0.0
2014-Dec-18 18:33N 38°42' W 009°10'4 3.8
2014-Dec-18 17:33N 38°41' W 009°14'4 3.8
2014-Dec-18 16:33N 38°42' W 009°10'0 0.0
2014-Dec-18 15:33N 38°42' W 009°10'0 0.0
2014-Dec-18 14:33N 38°42' W 009°10'0 0.0
2014-Dec-18 13:33N 38°42' W 009°10'0 0.0
2014-Dec-18 12:33N 38°42' W 009°10'0 0.0
2014-Dec-18 11:33N 38°42' W 009°10'0 0.0
2014-Dec-18 10:33N 38°42' W 009°10'1 0.7
2014-Dec-18 09:33N 38°42' W 009°09'2 2.4
2014-Dec-18 08:33N 38°43' W 009°06'3 3.1
2014-Dec-18 07:33N 38°42' W 009°10'0 0.0
2014-Dec-18 06:33N 38°42' W 009°10'0 0.0
2014-Dec-18 05:34N 38°42' W 009°10'0 0.0
2014-Dec-18 04:33N 38°42' W 009°10'0 0.0
2014-Dec-18 03:33N 38°42' W 009°10'0 0.0
2014-Dec-18 02:33N 38°42' W 009°10'0 0.0
2014-Dec-18 01:33N 38°42' W 009°10'0 0.0
2014-Dec-18 00:34N 38°42' W 009°10'0 0.0
2014-Dec-17 23:33N 38°42' W 009°10'0 0.0
2014-Dec-17 22:33N 38°42' W 009°10'0 0.0
2014-Dec-17 21:33N 38°42' W 009°10'0 0.0
2014-Dec-17 20:33N 38°42' W 009°10'2 1.9
2014-Dec-17 19:33N 38°41' W 009°12'0 0.2
2014-Dec-17 18:34N 38°41' W 009°12'2 2.1
2014-Dec-17 17:33N 38°42' W 009°10'0 0.4
2014-Dec-17 16:33N 38°42' W 009°10'0 0.4
2014-Dec-17 15:33N 38°42' W 009°10'0 0.0
2014-Dec-17 14:33N 38°42' W 009°10'0 0.0
2014-Dec-17 13:33N 38°42' W 009°10'0 0.3
2014-Dec-17 12:33N 38°42' W 009°09'0 0.1
2014-Dec-17 11:33N 38°42' W 009°09'0 0.2
2014-Dec-17 10:33N 38°42' W 009°10'0 0.0
2014-Dec-17 09:33N 38°42' W 009°10'4 3.5
2014-Dec-17 08:33N 38°41' W 009°14'4 3.5
2014-Dec-17 07:33N 38°42' W 009°10'0 0.0
2014-Dec-17 06:33N 38°42' W 009°10'0 0.0
2014-Dec-17 05:33N 38°42' W 009°10'0 0.0
2014-Dec-17 04:33N 38°42' W 009°10'0 0.0
2014-Dec-17 03:34N 38°42' W 009°10'0 0.0
2014-Dec-17 02:33N 38°42' W 009°10'0 0.0
2014-Dec-17 01:33N 38°42' W 009°10'0 0.0
2014-Dec-17 00:33N 38°42' W 009°10'0 0.0
2014-Dec-16 23:33N 38°42' W 009°10'2 1.8
2014-Dec-16 22:33N 38°41' W 009°11'1 1.4
2014-Dec-16 21:33N 38°42' W 009°10'1 0.5
2014-Dec-16 20:34N 38°42' W 009°10'0 0.0
2014-Dec-16 19:33N 38°42' W 009°10'0 0.0
2014-Dec-16 18:33N 38°42' W 009°10'0 0.0
2014-Dec-16 17:33N 38°42' W 009°10'4 3.8
2014-Dec-16 16:33N 38°41' W 009°14'1 1.3
2014-Dec-16 15:33N 38°41' W 009°12'3 2.5
2014-Dec-16 14:33N 38°42' W 009°09'0 0.1
2014-Dec-16 13:33N 38°42' W 009°10'0 0.0
2014-Dec-16 12:33N 38°42' W 009°10'0 0.0
2014-Dec-16 11:33N 38°42' W 009°10'0 0.4
2014-Dec-16 10:33N 38°42' W 009°09'2 1.9
2014-Dec-16 09:33N 38°40' W 009°09'2 2.1
2014-Dec-16 08:33N 38°42' W 009°10'0 0.3
2014-Dec-16 07:33N 38°42' W 009°10'0 0.4
2014-Dec-16 06:33N 38°42' W 009°10'0 0.3
2014-Dec-16 05:33N 38°42' W 009°10'0 0.0
2014-Dec-16 04:33N 38°42' W 009°10'0 0.0
2014-Dec-16 03:32N 38°42' W 009°10'0 0.0
2014-Dec-16 02:33N 38°42' W 009°10'0 0.0
2014-Dec-16 01:33N 38°42' W 009°10'0 0.0
2014-Dec-16 00:31N 38°42' W 009°10'0 0.0
2014-Dec-15 23:33N 38°42' W 009°10'3 2.9
2014-Dec-15 22:34N 38°44' W 009°06'3 2.9
2014-Dec-15 21:33N 38°42' W 009°10'0 0.0
2014-Dec-15 20:33N 38°42' W 009°10'0 0.0
2014-Dec-15 19:33N 38°42' W 009°10'0 0.0
2014-Dec-15 18:33N 38°42' W 009°10'0 0.0
2014-Dec-15 17:33N 38°42' W 009°10'0 0.0
2014-Dec-15 16:33N 38°42' W 009°10'0 0.0
2014-Dec-15 15:33N 38°42' W 009°10'0 0.0
2014-Dec-15 14:33N 38°42' W 009°10'0 0.0
2014-Dec-15 13:33N 38°42' W 009°10'0 0.0
2014-Dec-15 12:33N 38°42' W 009°10'0 0.0
2014-Dec-15 11:33N 38°42' W 009°10'0 0.0
2014-Dec-15 10:33N 38°42' W 009°10'0 0.0
2014-Dec-15 09:33N 38°42' W 009°10'0 0.0
2014-Dec-15 08:34N 38°42' W 009°10'2 1.9
2014-Dec-15 07:33N 38°40' W 009°09'2 1.8
2014-Dec-15 06:33N 38°42' W 009°10'1 0.7
2014-Dec-15 05:33N 38°42' W 009°11'1 0.9
2014-Dec-15 04:33N 38°42' W 009°10'1 0.7
2014-Dec-15 03:33N 38°42' W 009°09'2 1.6
2014-Dec-15 02:33N 38°43' W 009°07'2 2.3
2014-Dec-15 01:33N 38°42' W 009°10'0 0.0
2014-Dec-15 00:33N 38°42' W 009°10'0 0.0
2014-Dec-14 23:33N 38°42' W 009°10'0 0.0
2014-Dec-14 22:33N 38°42' W 009°10'0 0.0
2014-Dec-14 21:33N 38°42' W 009°10'0 0.0
2014-Dec-14 20:33N 38°42' W 009°10'0 0.0
2014-Dec-14 19:33N 38°42' W 009°10'0 0.0
2014-Dec-14 18:33N 38°42' W 009°10'0 0.0
2014-Dec-14 17:33N 38°42' W 009°10'0 0.0
2014-Dec-14 16:33N 38°42' W 009°10'0 0.0
2014-Dec-14 15:33N 38°42' W 009°10'2 1.7
2014-Dec-14 14:33N 38°41' W 009°11'1 1.3
2014-Dec-14 13:33N 38°41' W 009°13'3 2.7
2014-Dec-14 12:33N 38°42' W 009°09'0 0.3
2014-Dec-14 11:33N 38°42' W 009°10'0 0.0
2014-Dec-14 10:33N 38°42' W 009°10'2 1.9
2014-Dec-14 09:33N 38°41' W 009°08'2 1.9
2014-Dec-14 08:33N 38°42' W 009°10'0 0.0
2014-Dec-14 07:33N 38°42' W 009°10'0 0.0
2014-Dec-14 06:33N 38°42' W 009°10'0 0.0
2014-Dec-14 05:33N 38°42' W 009°10'0 0.0
2014-Dec-14 04:33N 38°42' W 009°10'0 0.0
2014-Dec-14 03:33N 38°42' W 009°10'0 0.0
2014-Dec-14 02:33N 38°42' W 009°10'0 0.0
2014-Dec-14 01:33N 38°42' W 009°10'0 0.0
2014-Dec-14 00:33N 38°42' W 009°10'0 0.0
2014-Dec-13 23:33N 38°42' W 009°10'0 0.0
2014-Dec-13 22:33N 38°42' W 009°10'0 0.0
2014-Dec-13 21:33N 38°42' W 009°10'0 0.0
2014-Dec-13 20:34N 38°42' W 009°10'0 0.0
2014-Dec-13 19:33N 38°42' W 009°10'2 1.9
2014-Dec-13 18:33N 38°40' W 009°09'2 1.9
2014-Dec-13 17:33N 38°42' W 009°10'0 0.0
2014-Dec-13 16:33N 38°42' W 009°10'0 0.0
2014-Dec-13 15:33N 38°42' W 009°10'0 0.0
2014-Dec-13 14:33N 38°42' W 009°10'0 0.0
2014-Dec-13 13:34N 38°42' W 009°10'0 0.0
2014-Dec-13 12:34N 38°42' W 009°10'0 0.0
2014-Dec-13 11:34N 38°42' W 009°10'0 0.0
2014-Dec-13 10:34N 38°42' W 009°10'0 0.0
2014-Dec-13 09:33N 38°42' W 009°10'0 0.0
2014-Dec-13 08:34N 38°42' W 009°10'0 0.0
2014-Dec-13 07:33N 38°42' W 009°10'0 0.2
2014-Dec-13 06:33N 38°42' W 009°10'0 0.2
2014-Dec-13 05:34N 38°42' W 009°10'0 0.0
2014-Dec-13 04:33N 38°42' W 009°10'0 0.0
2014-Dec-13 03:34N 38°42' W 009°10'0 0.0
2014-Dec-13 02:34N 38°42' W 009°10'0 0.0
2014-Dec-13 01:34N 38°42' W 009°10'0 0.0
2014-Dec-13 00:34N 38°42' W 009°10'0 0.0
2014-Dec-12 23:34N 38°42' W 009°10'0 0.0
2014-Dec-12 22:33N 38°42' W 009°10'0 0.0
2014-Dec-12 21:33N 38°42' W 009°10'0 0.0
2014-Dec-12 20:33N 38°42' W 009°10'3 2.5
2014-Dec-12 19:33N 38°43' W 009°07'2 2.1
2014-Dec-12 18:33N 38°42' W 009°09'1 0.9
2014-Dec-12 17:33N 38°42' W 009°10'0 0.0
2014-Dec-12 16:33N 38°42' W 009°10'0 0.0
2014-Dec-12 15:33N 38°42' W 009°10'0 0.0
2014-Dec-12 14:34N 38°42' W 009°10'0 0.0
2014-Dec-12 13:34N 38°42' W 009°10'0 0.0
2014-Dec-12 12:34N 38°42' W 009°10'0 0.0
2014-Dec-12 11:33N 38°42' W 009°10'0 0.0
2014-Dec-12 10:34N 38°42' W 009°10'0 0.0
2014-Dec-12 09:33N 38°42' W 009°10'0 0.0
2014-Dec-12 08:34N 38°42' W 009°10'0 0.0
2014-Dec-12 07:33N 38°42' W 009°10'3 2.9
2014-Dec-12 06:34N 38°44' W 009°06'3 2.7
2014-Dec-12 05:34N 38°42' W 009°09'0 0.3
2014-Dec-12 04:33N 38°42' W 009°10'1 0.8
2014-Dec-12 03:34N 38°42' W 009°09'4 4.0
2014-Dec-12 02:33N 38°41' W 009°04'5 4.8
2014-Dec-12 01:34N 38°42' W 009°10'0 0.0
2014-Dec-12 00:33N 38°42' W 009°10'  

Dump ship's entire track history